sensor_id;sensor_type;location;lat;lon;timestamp;P1;durP1;ratioP1;P2;durP2;ratioP2
55489;SDS011;44029;52.956;4.772;2023-04-29T00:02:25;19.38;;;9.23;;
55489;SDS011;44029;52.956;4.772;2023-04-29T00:04:52;19.85;;;8.57;;
55489;SDS011;44029;52.956;4.772;2023-04-29T00:07:18;10.07;;;5.93;;
55489;SDS011;44029;52.956;4.772;2023-04-29T00:09:43;20.20;;;9.50;;
55489;SDS011;44029;52.956;4.772;2023-04-29T00:12:09;16.63;;;8.05;;
55489;SDS011;44029;52.956;4.772;2023-04-29T00:14:35;14.55;;;6.45;;
55489;SDS011;44029;52.956;4.772;2023-04-29T00:17:00;16.83;;;6.88;;
55489;SDS011;44029;52.956;4.772;2023-04-29T00:19:25;11.05;;;6.65;;
55489;SDS011;44029;52.956;4.772;2023-04-29T00:21:51;11.23;;;5.40;;
55489;SDS011;44029;52.956;4.772;2023-04-29T00:24:18;14.70;;;6.68;;
55489;SDS011;44029;52.956;4.772;2023-04-29T00:26:43;16.80;;;6.50;;
55489;SDS011;44029;52.956;4.772;2023-04-29T00:29:09;21.38;;;6.72;;
55489;SDS011;44029;52.956;4.772;2023-04-29T00:31:35;5.43;;;3.28;;
55489;SDS011;44029;52.956;4.772;2023-04-29T00:34:01;11.18;;;4.78;;
55489;SDS011;44029;52.956;4.772;2023-04-29T00:36:26;17.33;;;6.40;;
55489;SDS011;44029;52.956;4.772;2023-04-29T00:38:52;12.88;;;5.75;;
55489;SDS011;44029;52.956;4.772;2023-04-29T00:41:17;17.23;;;9.48;;
55489;SDS011;44029;52.956;4.772;2023-04-29T00:43:43;17.13;;;7.15;;
55489;SDS011;44029;52.956;4.772;2023-04-29T00:46:08;12.50;;;6.93;;
55489;SDS011;44029;52.956;4.772;2023-04-29T00:48:34;11.88;;;5.32;;
55489;SDS011;44029;52.956;4.772;2023-04-29T00:50:59;12.68;;;5.35;;
55489;SDS011;44029;52.956;4.772;2023-04-29T00:53:26;14.85;;;7.57;;
55489;SDS011;44029;52.956;4.772;2023-04-29T00:55:51;8.45;;;5.03;;
55489;SDS011;44029;52.956;4.772;2023-04-29T00:58:17;17.08;;;6.72;;
55489;SDS011;44029;52.956;4.772;2023-04-29T01:00:44;18.35;;;5.03;;
55489;SDS011;44029;52.956;4.772;2023-04-29T01:03:10;13.45;;;7.70;;
55489;SDS011;44029;52.956;4.772;2023-04-29T01:05:37;19.58;;;9.07;;
55489;SDS011;44029;52.956;4.772;2023-04-29T01:10:41;10.30;;;5.63;;
55489;SDS011;44029;52.956;4.772;2023-04-29T01:13:18;8.13;;;3.97;;
55489;SDS011;44029;52.956;4.772;2023-04-29T01:15:59;20.73;;;5.00;;
55489;SDS011;44029;52.956;4.772;2023-04-29T01:18:38;13.95;;;5.03;;
55489;SDS011;44029;52.956;4.772;2023-04-29T01:21:07;23.65;;;5.63;;
55489;SDS011;44029;52.956;4.772;2023-04-29T01:23:33;11.75;;;5.75;;
55489;SDS011;44029;52.956;4.772;2023-04-29T01:25:58;14.18;;;7.25;;
55489;SDS011;44029;52.956;4.772;2023-04-29T01:34:13;8.70;;;5.47;;
55489;SDS011;44029;52.956;4.772;2023-04-29T01:39:32;13.93;;;6.43;;
55489;SDS011;44029;52.956;4.772;2023-04-29T01:42:14;9.45;;;5.53;;
55489;SDS011;44029;52.956;4.772;2023-04-29T01:44:46;11.35;;;5.50;;
55489;SDS011;44029;52.956;4.772;2023-04-29T01:47:13;25.08;;;8.85;;
55489;SDS011;44029;52.956;4.772;2023-04-29T01:49:39;11.07;;;6.25;;
55489;SDS011;44029;52.956;4.772;2023-04-29T01:52:05;15.05;;;6.72;;
55489;SDS011;44029;52.956;4.772;2023-04-29T01:54:31;16.50;;;7.40;;
55489;SDS011;44029;52.956;4.772;2023-04-29T01:57:00;15.00;;;6.22;;
55489;SDS011;44029;52.956;4.772;2023-04-29T01:59:26;22.23;;;9.93;;
55489;SDS011;44029;52.956;4.772;2023-04-29T02:01:51;25.98;;;8.48;;
55489;SDS011;44029;52.956;4.772;2023-04-29T02:04:16;10.23;;;5.80;;
55489;SDS011;44029;52.956;4.772;2023-04-29T02:06:42;10.57;;;5.97;;
55489;SDS011;44029;52.956;4.772;2023-04-29T02:09:08;24.42;;;9.68;;
55489;SDS011;44029;52.956;4.772;2023-04-29T02:11:33;8.80;;;5.55;;
55489;SDS011;44029;52.956;4.772;2023-04-29T02:13:59;17.77;;;8.88;;
55489;SDS011;44029;52.956;4.772;2023-04-29T02:16:24;17.48;;;7.72;;
55489;SDS011;44029;52.956;4.772;2023-04-29T02:18:49;9.00;;;4.43;;
55489;SDS011;44029;52.956;4.772;2023-04-29T02:21:15;17.27;;;7.20;;
55489;SDS011;44029;52.956;4.772;2023-04-29T02:23:40;14.30;;;5.63;;
55489;SDS011;44029;52.956;4.772;2023-04-29T02:26:05;15.80;;;7.55;;
55489;SDS011;44029;52.956;4.772;2023-04-29T02:28:31;13.13;;;6.55;;
55489;SDS011;44029;52.956;4.772;2023-04-29T02:30:58;16.73;;;6.18;;
55489;SDS011;44029;52.956;4.772;2023-04-29T02:33:23;12.55;;;6.43;;
55489;SDS011;44029;52.956;4.772;2023-04-29T02:35:48;12.55;;;7.07;;
55489;SDS011;44029;52.956;4.772;2023-04-29T02:38:14;30.77;;;6.18;;
55489;SDS011;44029;52.956;4.772;2023-04-29T02:40:44;18.77;;;8.27;;
55489;SDS011;44029;52.956;4.772;2023-04-29T02:43:11;5.85;;;2.95;;
55489;SDS011;44029;52.956;4.772;2023-04-29T02:45:37;13.68;;;7.05;;
55489;SDS011;44029;52.956;4.772;2023-04-29T02:48:03;16.10;;;7.65;;
55489;SDS011;44029;52.956;4.772;2023-04-29T02:50:29;17.00;;;5.15;;
55489;SDS011;44029;52.956;4.772;2023-04-29T02:52:54;6.78;;;4.30;;
55489;SDS011;44029;52.956;4.772;2023-04-29T02:55:20;23.15;;;7.68;;
55489;SDS011;44029;52.956;4.772;2023-04-29T02:57:45;6.10;;;4.60;;
55489;SDS011;44029;52.956;4.772;2023-04-29T03:00:11;20.90;;;6.47;;
55489;SDS011;44029;52.956;4.772;2023-04-29T03:02:37;31.10;;;10.77;;
55489;SDS011;44029;52.956;4.772;2023-04-29T03:05:02;29.85;;;8.32;;
55489;SDS011;44029;52.956;4.772;2023-04-29T03:07:29;10.48;;;5.90;;
55489;SDS011;44029;52.956;4.772;2023-04-29T03:09:54;17.92;;;7.18;;
55489;SDS011;44029;52.956;4.772;2023-04-29T03:12:20;31.58;;;6.88;;
55489;SDS011;44029;52.956;4.772;2023-04-29T03:14:46;15.07;;;6.18;;
55489;SDS011;44029;52.956;4.772;2023-04-29T03:17:11;37.03;;;4.47;;
55489;SDS011;44029;52.956;4.772;2023-04-29T03:19:37;7.72;;;4.25;;
55489;SDS011;44029;52.956;4.772;2023-04-29T03:22:02;14.25;;;4.18;;
55489;SDS011;44029;52.956;4.772;2023-04-29T03:24:28;11.88;;;3.80;;
55489;SDS011;44029;52.956;4.772;2023-04-29T03:26:53;5.72;;;3.25;;
55489;SDS011;44029;52.956;4.772;2023-04-29T03:29:19;11.65;;;5.35;;
55489;SDS011;44029;52.956;4.772;2023-04-29T03:31:44;7.70;;;3.22;;
55489;SDS011;44029;52.956;4.772;2023-04-29T03:34:10;22.35;;;3.17;;
55489;SDS011;44029;52.956;4.772;2023-04-29T03:36:35;15.35;;;6.47;;
55489;SDS011;44029;52.956;4.772;2023-04-29T03:39:01;13.60;;;5.32;;
55489;SDS011;44029;52.956;4.772;2023-04-29T03:41:26;10.18;;;5.05;;
55489;SDS011;44029;52.956;4.772;2023-04-29T03:43:51;21.13;;;5.93;;
55489;SDS011;44029;52.956;4.772;2023-04-29T03:46:17;23.02;;;4.55;;
55489;SDS011;44029;52.956;4.772;2023-04-29T03:48:42;8.13;;;4.20;;
55489;SDS011;44029;52.956;4.772;2023-04-29T03:51:07;6.80;;;4.53;;
55489;SDS011;44029;52.956;4.772;2023-04-29T03:53:33;11.15;;;5.07;;
55489;SDS011;44029;52.956;4.772;2023-04-29T03:56:00;10.75;;;4.05;;
55489;SDS011;44029;52.956;4.772;2023-04-29T03:58:25;13.32;;;4.70;;
55489;SDS011;44029;52.956;4.772;2023-04-29T04:00:51;8.77;;;3.90;;
55489;SDS011;44029;52.956;4.772;2023-04-29T04:03:16;30.92;;;6.80;;
55489;SDS011;44029;52.956;4.772;2023-04-29T04:05:41;26.30;;;6.50;;
55489;SDS011;44029;52.956;4.772;2023-04-29T04:08:07;25.55;;;7.90;;
55489;SDS011;44029;52.956;4.772;2023-04-29T04:10:32;7.97;;;4.35;;
55489;SDS011;44029;52.956;4.772;2023-04-29T04:12:57;17.08;;;5.25;;
55489;SDS011;44029;52.956;4.772;2023-04-29T04:15:23;9.10;;;3.95;;
55489;SDS011;44029;52.956;4.772;2023-04-29T04:17:48;6.70;;;4.55;;
55489;SDS011;44029;52.956;4.772;2023-04-29T04:20:13;6.10;;;2.97;;
55489;SDS011;44029;52.956;4.772;2023-04-29T04:22:39;8.05;;;4.43;;
55489;SDS011;44029;52.956;4.772;2023-04-29T04:25:05;14.43;;;5.45;;
55489;SDS011;44029;52.956;4.772;2023-04-29T04:27:31;14.18;;;4.43;;
55489;SDS011;44029;52.956;4.772;2023-04-29T04:29:56;8.10;;;4.00;;
55489;SDS011;44029;52.956;4.772;2023-04-29T04:32:22;4.43;;;2.60;;
55489;SDS011;44029;52.956;4.772;2023-04-29T04:34:47;11.88;;;3.38;;
55489;SDS011;44029;52.956;4.772;2023-04-29T04:37:13;14.32;;;4.80;;
55489;SDS011;44029;52.956;4.772;2023-04-29T04:39:38;4.95;;;2.40;;
55489;SDS011;44029;52.956;4.772;2023-04-29T04:42:04;5.30;;;2.78;;
55489;SDS011;44029;52.956;4.772;2023-04-29T04:44:29;11.10;;;3.13;;
55489;SDS011;44029;52.956;4.772;2023-04-29T04:46:55;7.68;;;3.63;;
55489;SDS011;44029;52.956;4.772;2023-04-29T04:49:22;4.47;;;2.22;;
55489;SDS011;44029;52.956;4.772;2023-04-29T04:51:48;8.75;;;4.13;;
55489;SDS011;44029;52.956;4.772;2023-04-29T04:54:14;12.65;;;4.82;;
55489;SDS011;44029;52.956;4.772;2023-04-29T04:56:39;10.45;;;3.53;;
55489;SDS011;44029;52.956;4.772;2023-04-29T04:59:05;11.57;;;3.17;;
55489;SDS011;44029;52.956;4.772;2023-04-29T05:01:30;7.13;;;2.95;;
55489;SDS011;44029;52.956;4.772;2023-04-29T05:03:56;4.80;;;2.22;;
55489;SDS011;44029;52.956;4.772;2023-04-29T05:06:22;15.68;;;4.22;;
55489;SDS011;44029;52.956;4.772;2023-04-29T05:08:47;8.50;;;3.30;;
55489;SDS011;44029;52.956;4.772;2023-04-29T05:11:16;13.52;;;3.42;;
55489;SDS011;44029;52.956;4.772;2023-04-29T05:13:42;6.80;;;3.35;;
55489;SDS011;44029;52.956;4.772;2023-04-29T05:16:07;3.70;;;2.00;;
55489;SDS011;44029;52.956;4.772;2023-04-29T05:18:33;8.23;;;2.83;;
55489;SDS011;44029;52.956;4.772;2023-04-29T05:20:58;3.38;;;2.38;;
55489;SDS011;44029;52.956;4.772;2023-04-29T05:23:24;11.85;;;4.32;;
55489;SDS011;44029;52.956;4.772;2023-04-29T05:25:49;6.20;;;2.65;;
55489;SDS011;44029;52.956;4.772;2023-04-29T05:28:15;8.90;;;3.30;;
55489;SDS011;44029;52.956;4.772;2023-04-29T05:30:40;11.90;;;3.90;;
55489;SDS011;44029;52.956;4.772;2023-04-29T05:33:05;8.68;;;3.25;;
55489;SDS011;44029;52.956;4.772;2023-04-29T05:35:31;13.38;;;4.03;;
55489;SDS011;44029;52.956;4.772;2023-04-29T05:37:56;9.40;;;3.35;;
55489;SDS011;44029;52.956;4.772;2023-04-29T05:40:21;11.07;;;3.55;;
55489;SDS011;44029;52.956;4.772;2023-04-29T05:42:47;6.07;;;2.38;;
55489;SDS011;44029;52.956;4.772;2023-04-29T05:45:13;10.93;;;3.35;;
55489;SDS011;44029;52.956;4.772;2023-04-29T05:47:38;6.80;;;3.80;;
55489;SDS011;44029;52.956;4.772;2023-04-29T05:50:04;8.25;;;3.25;;
55489;SDS011;44029;52.956;4.772;2023-04-29T05:52:30;4.55;;;2.58;;
55489;SDS011;44029;52.956;4.772;2023-04-29T05:54:55;7.45;;;2.88;;
55489;SDS011;44029;52.956;4.772;2023-04-29T05:57:20;9.95;;;2.97;;
55489;SDS011;44029;52.956;4.772;2023-04-29T05:59:46;6.75;;;3.10;;
55489;SDS011;44029;52.956;4.772;2023-04-29T06:02:11;9.52;;;2.92;;
55489;SDS011;44029;52.956;4.772;2023-04-29T06:04:38;11.15;;;2.75;;
55489;SDS011;44029;52.956;4.772;2023-04-29T06:07:05;5.78;;;2.05;;
55489;SDS011;44029;52.956;4.772;2023-04-29T06:09:33;4.93;;;2.25;;
55489;SDS011;44029;52.956;4.772;2023-04-29T06:11:59;5.43;;;2.55;;
55489;SDS011;44029;52.956;4.772;2023-04-29T06:14:25;6.28;;;2.45;;
55489;SDS011;44029;52.956;4.772;2023-04-29T06:16:50;4.88;;;2.08;;
55489;SDS011;44029;52.956;4.772;2023-04-29T06:19:16;6.32;;;2.13;;
55489;SDS011;44029;52.956;4.772;2023-04-29T06:21:41;6.53;;;2.50;;
55489;SDS011;44029;52.956;4.772;2023-04-29T06:24:07;6.15;;;2.58;;
55489;SDS011;44029;52.956;4.772;2023-04-29T06:26:32;3.63;;;2.00;;
55489;SDS011;44029;52.956;4.772;2023-04-29T06:28:58;7.97;;;2.55;;
55489;SDS011;44029;52.956;4.772;2023-04-29T06:31:23;4.32;;;2.50;;
55489;SDS011;44029;52.956;4.772;2023-04-29T06:33:49;8.43;;;3.20;;
55489;SDS011;44029;52.956;4.772;2023-04-29T06:36:15;6.57;;;2.50;;
55489;SDS011;44029;52.956;4.772;2023-04-29T06:38:40;10.13;;;2.75;;
55489;SDS011;44029;52.956;4.772;2023-04-29T06:41:05;8.07;;;2.70;;
55489;SDS011;44029;52.956;4.772;2023-04-29T06:43:31;5.28;;;2.63;;
55489;SDS011;44029;52.956;4.772;2023-04-29T06:45:56;4.97;;;2.65;;
55489;SDS011;44029;52.956;4.772;2023-04-29T06:48:22;6.65;;;2.50;;
55489;SDS011;44029;52.956;4.772;2023-04-29T06:50:48;10.20;;;3.85;;
55489;SDS011;44029;52.956;4.772;2023-04-29T06:53:23;13.18;;;3.63;;
55489;SDS011;44029;52.956;4.772;2023-04-29T06:55:48;13.70;;;2.92;;
55489;SDS011;44029;52.956;4.772;2023-04-29T06:58:15;5.47;;;2.65;;
55489;SDS011;44029;52.956;4.772;2023-04-29T07:00:44;8.30;;;3.53;;
55489;SDS011;44029;52.956;4.772;2023-04-29T07:03:11;4.40;;;1.73;;
55489;SDS011;44029;52.956;4.772;2023-04-29T07:05:36;3.70;;;1.92;;
55489;SDS011;44029;52.956;4.772;2023-04-29T07:08:04;4.75;;;2.40;;
55489;SDS011;44029;52.956;4.772;2023-04-29T07:10:30;3.92;;;1.77;;
55489;SDS011;44029;52.956;4.772;2023-04-29T07:12:55;28.70;;;3.85;;
55489;SDS011;44029;52.956;4.772;2023-04-29T07:15:21;4.53;;;2.30;;
55489;SDS011;44029;52.956;4.772;2023-04-29T07:17:46;3.63;;;2.13;;
55489;SDS011;44029;52.956;4.772;2023-04-29T07:20:11;7.05;;;2.83;;
55489;SDS011;44029;52.956;4.772;2023-04-29T07:22:37;3.33;;;1.70;;
55489;SDS011;44029;52.956;4.772;2023-04-29T07:25:03;9.00;;;2.72;;
55489;SDS011;44029;52.956;4.772;2023-04-29T07:27:28;2.80;;;1.67;;
55489;SDS011;44029;52.956;4.772;2023-04-29T07:29:54;5.85;;;2.70;;
55489;SDS011;44029;52.956;4.772;2023-04-29T07:32:19;5.03;;;2.70;;
55489;SDS011;44029;52.956;4.772;2023-04-29T07:34:45;2.60;;;1.67;;
55489;SDS011;44029;52.956;4.772;2023-04-29T07:37:11;7.20;;;2.58;;
55489;SDS011;44029;52.956;4.772;2023-04-29T07:39:37;6.65;;;2.80;;
55489;SDS011;44029;52.956;4.772;2023-04-29T07:42:03;5.10;;;2.65;;
55489;SDS011;44029;52.956;4.772;2023-04-29T07:44:28;9.30;;;2.67;;
55489;SDS011;44029;52.956;4.772;2023-04-29T07:46:53;5.00;;;2.45;;
55489;SDS011;44029;52.956;4.772;2023-04-29T07:49:19;5.50;;;2.65;;
55489;SDS011;44029;52.956;4.772;2023-04-29T07:51:44;4.40;;;2.17;;
55489;SDS011;44029;52.956;4.772;2023-04-29T07:54:10;6.60;;;2.38;;
55489;SDS011;44029;52.956;4.772;2023-04-29T07:56:35;5.53;;;2.38;;
55489;SDS011;44029;52.956;4.772;2023-04-29T07:59:00;2.67;;;1.10;;
55489;SDS011;44029;52.956;4.772;2023-04-29T08:01:26;5.85;;;1.85;;
55489;SDS011;44029;52.956;4.772;2023-04-29T08:03:52;6.72;;;1.98;;
55489;SDS011;44029;52.956;4.772;2023-04-29T08:06:18;4.10;;;1.73;;
55489;SDS011;44029;52.956;4.772;2023-04-29T08:08:46;4.15;;;2.08;;
55489;SDS011;44029;52.956;4.772;2023-04-29T08:11:18;9.40;;;2.53;;
55489;SDS011;44029;52.956;4.772;2023-04-29T08:13:45;5.55;;;2.17;;
55489;SDS011;44029;52.956;4.772;2023-04-29T08:16:11;4.88;;;1.70;;
55489;SDS011;44029;52.956;4.772;2023-04-29T08:18:37;3.38;;;2.08;;
55489;SDS011;44029;52.956;4.772;2023-04-29T08:21:02;3.50;;;1.50;;
55489;SDS011;44029;52.956;4.772;2023-04-29T08:23:28;3.13;;;1.45;;
55489;SDS011;44029;52.956;4.772;2023-04-29T08:25:53;2.35;;;1.65;;
55489;SDS011;44029;52.956;4.772;2023-04-29T08:28:20;8.10;;;1.58;;
55489;SDS011;44029;52.956;4.772;2023-04-29T08:30:46;3.78;;;1.40;;
55489;SDS011;44029;52.956;4.772;2023-04-29T08:33:11;5.47;;;2.03;;
55489;SDS011;44029;52.956;4.772;2023-04-29T08:35:37;4.78;;;2.03;;
55489;SDS011;44029;52.956;4.772;2023-04-29T08:38:03;3.58;;;1.42;;
55489;SDS011;44029;52.956;4.772;2023-04-29T08:40:32;5.53;;;2.05;;
55489;SDS011;44029;52.956;4.772;2023-04-29T08:42:59;5.10;;;1.83;;
55489;SDS011;44029;52.956;4.772;2023-04-29T08:45:25;4.70;;;2.10;;
55489;SDS011;44029;52.956;4.772;2023-04-29T08:47:52;8.25;;;1.98;;
55489;SDS011;44029;52.956;4.772;2023-04-29T08:50:20;7.90;;;2.00;;
55489;SDS011;44029;52.956;4.772;2023-04-29T08:52:48;7.53;;;2.58;;
55489;SDS011;44029;52.956;4.772;2023-04-29T08:55:14;3.65;;;1.60;;
55489;SDS011;44029;52.956;4.772;2023-04-29T08:57:40;3.92;;;1.67;;
55489;SDS011;44029;52.956;4.772;2023-04-29T09:00:08;4.75;;;1.88;;
55489;SDS011;44029;52.956;4.772;2023-04-29T09:02:36;5.30;;;2.33;;
55489;SDS011;44029;52.956;4.772;2023-04-29T09:05:10;4.28;;;2.40;;
55489;SDS011;44029;52.956;4.772;2023-04-29T09:07:38;6.07;;;1.75;;
55489;SDS011;44029;52.956;4.772;2023-04-29T09:10:06;6.05;;;1.75;;
55489;SDS011;44029;52.956;4.772;2023-04-29T09:12:32;3.63;;;1.38;;
55489;SDS011;44029;52.956;4.772;2023-04-29T09:14:57;4.15;;;1.88;;
55489;SDS011;44029;52.956;4.772;2023-04-29T09:20:12;5.68;;;2.03;;
55489;SDS011;44029;52.956;4.772;2023-04-29T09:25:28;6.78;;;1.50;;
55489;SDS011;44029;52.956;4.772;2023-04-29T09:27:54;2.30;;;1.60;;
55489;SDS011;44029;52.956;4.772;2023-04-29T09:30:19;6.35;;;1.90;;
55489;SDS011;44029;52.956;4.772;2023-04-29T09:33:02;4.47;;;2.05;;
55489;SDS011;44029;52.956;4.772;2023-04-29T09:35:30;4.30;;;2.08;;
55489;SDS011;44029;52.956;4.772;2023-04-29T09:38:09;6.03;;;2.30;;
55489;SDS011;44029;52.956;4.772;2023-04-29T09:40:35;5.90;;;2.38;;
55489;SDS011;44029;52.956;4.772;2023-04-29T09:43:01;5.20;;;2.03;;
55489;SDS011;44029;52.956;4.772;2023-04-29T09:45:33;4.88;;;1.60;;
55489;SDS011;44029;52.956;4.772;2023-04-29T09:48:00;8.35;;;1.67;;
55489;SDS011;44029;52.956;4.772;2023-04-29T09:50:30;1.60;;;0.60;;
55489;SDS011;44029;52.956;4.772;2023-04-29T09:52:56;2.53;;;1.40;;
55489;SDS011;44029;52.956;4.772;2023-04-29T09:55:22;6.82;;;1.42;;
55489;SDS011;44029;52.956;4.772;2023-04-29T09:57:47;15.30;;;8.90;;
55489;SDS011;44029;52.956;4.772;2023-04-29T10:00:13;12.98;;;6.57;;
55489;SDS011;44029;52.956;4.772;2023-04-29T10:02:41;2.75;;;1.33;;
55489;SDS011;44029;52.956;4.772;2023-04-29T10:05:16;6.85;;;1.90;;
55489;SDS011;44029;52.956;4.772;2023-04-29T10:07:44;6.90;;;2.05;;
55489;SDS011;44029;52.956;4.772;2023-04-29T10:10:11;6.47;;;2.78;;
55489;SDS011;44029;52.956;4.772;2023-04-29T10:12:38;3.30;;;1.30;;
55489;SDS011;44029;52.956;4.772;2023-04-29T10:15:17;4.05;;;1.05;;
55489;SDS011;44029;52.956;4.772;2023-04-29T10:18:05;6.25;;;1.23;;
55489;SDS011;44029;52.956;4.772;2023-04-29T10:20:34;3.90;;;1.40;;
55489;SDS011;44029;52.956;4.772;2023-04-29T10:23:04;1.80;;;1.10;;
55489;SDS011;44029;52.956;4.772;2023-04-29T10:25:30;2.70;;;1.10;;
55489;SDS011;44029;52.956;4.772;2023-04-29T10:27:57;5.35;;;1.33;;
55489;SDS011;44029;52.956;4.772;2023-04-29T10:30:24;3.50;;;1.45;;
55489;SDS011;44029;52.956;4.772;2023-04-29T10:32:50;3.20;;;1.10;;
55489;SDS011;44029;52.956;4.772;2023-04-29T10:35:16;4.72;;;1.60;;
55489;SDS011;44029;52.956;4.772;2023-04-29T10:37:47;10.75;;;2.65;;
55489;SDS011;44029;52.956;4.772;2023-04-29T10:42:45;3.30;;;1.50;;
55489;SDS011;44029;52.956;4.772;2023-04-29T10:45:28;8.80;;;3.30;;
55489;SDS011;44029;52.956;4.772;2023-04-29T10:53:10;2.28;;;1.63;;
55489;SDS011;44029;52.956;4.772;2023-04-29T10:55:37;4.03;;;1.40;;
55489;SDS011;44029;52.956;4.772;2023-04-29T10:58:03;9.18;;;2.03;;
55489;SDS011;44029;52.956;4.772;2023-04-29T11:00:30;4.38;;;1.73;;
55489;SDS011;44029;52.956;4.772;2023-04-29T11:02:58;2.97;;;1.05;;
55489;SDS011;44029;52.956;4.772;2023-04-29T11:05:31;2.38;;;1.48;;
55489;SDS011;44029;52.956;4.772;2023-04-29T11:08:13;5.20;;;1.60;;
55489;SDS011;44029;52.956;4.772;2023-04-29T11:10:47;4.35;;;1.33;;
55489;SDS011;44029;52.956;4.772;2023-04-29T11:13:28;3.65;;;1.90;;
55489;SDS011;44029;52.956;4.772;2023-04-29T11:18:30;8.20;;;1.98;;
55489;SDS011;44029;52.956;4.772;2023-04-29T11:23:37;5.25;;;2.33;;
55489;SDS011;44029;52.956;4.772;2023-04-29T11:26:05;5.03;;;2.38;;
55489;SDS011;44029;52.956;4.772;2023-04-29T11:28:31;11.85;;;2.30;;
55489;SDS011;44029;52.956;4.772;2023-04-29T11:30:57;5.13;;;2.00;;
55489;SDS011;44029;52.956;4.772;2023-04-29T11:33:23;5.70;;;1.92;;
55489;SDS011;44029;52.956;4.772;2023-04-29T11:35:51;5.80;;;2.13;;
55489;SDS011;44029;52.956;4.772;2023-04-29T11:38:22;7.63;;;2.03;;
55489;SDS011;44029;52.956;4.772;2023-04-29T11:40:51;4.53;;;2.45;;
55489;SDS011;44029;52.956;4.772;2023-04-29T11:43:17;8.38;;;2.30;;
55489;SDS011;44029;52.956;4.772;2023-04-29T11:45:45;7.78;;;2.20;;
55489;SDS011;44029;52.956;4.772;2023-04-29T11:48:21;4.32;;;2.15;;
55489;SDS011;44029;52.956;4.772;2023-04-29T11:50:56;5.75;;;2.53;;
55489;SDS011;44029;52.956;4.772;2023-04-29T11:53:24;7.43;;;2.63;;
55489;SDS011;44029;52.956;4.772;2023-04-29T11:55:52;7.20;;;3.30;;
55489;SDS011;44029;52.956;4.772;2023-04-29T11:58:21;4.93;;;1.88;;
55489;SDS011;44029;52.956;4.772;2023-04-29T12:00:47;5.00;;;1.85;;
55489;SDS011;44029;52.956;4.772;2023-04-29T12:03:13;2.17;;;1.35;;
55489;SDS011;44029;52.956;4.772;2023-04-29T12:05:46;3.85;;;1.65;;
55489;SDS011;44029;52.956;4.772;2023-04-29T12:08:13;7.40;;;2.08;;
55489;SDS011;44029;52.956;4.772;2023-04-29T12:10:38;4.00;;;2.22;;
55489;SDS011;44029;52.956;4.772;2023-04-29T12:13:05;5.25;;;2.50;;
55489;SDS011;44029;52.956;4.772;2023-04-29T12:15:30;3.15;;;1.77;;
55489;SDS011;44029;52.956;4.772;2023-04-29T12:17:57;3.78;;;1.55;;
55489;SDS011;44029;52.956;4.772;2023-04-29T12:20:22;6.15;;;1.40;;
55489;SDS011;44029;52.956;4.772;2023-04-29T12:22:48;3.35;;;1.63;;
55489;SDS011;44029;52.956;4.772;2023-04-29T12:25:14;8.02;;;1.90;;
55489;SDS011;44029;52.956;4.772;2023-04-29T12:27:39;3.25;;;1.73;;
55489;SDS011;44029;52.956;4.772;2023-04-29T12:30:08;5.05;;;1.77;;
55489;SDS011;44029;52.956;4.772;2023-04-29T12:32:34;4.32;;;2.25;;
55489;SDS011;44029;52.956;4.772;2023-04-29T12:35:00;10.52;;;1.92;;
55489;SDS011;44029;52.956;4.772;2023-04-29T12:37:26;3.53;;;1.88;;
55489;SDS011;44029;52.956;4.772;2023-04-29T12:39:53;6.15;;;2.60;;
55489;SDS011;44029;52.956;4.772;2023-04-29T12:42:19;3.25;;;1.80;;
55489;SDS011;44029;52.956;4.772;2023-04-29T12:44:44;9.93;;;2.20;;
55489;SDS011;44029;52.956;4.772;2023-04-29T12:47:13;6.00;;;2.28;;
55489;SDS011;44029;52.956;4.772;2023-04-29T12:49:40;5.43;;;2.15;;
55489;SDS011;44029;52.956;4.772;2023-04-29T12:52:07;9.77;;;2.35;;
55489;SDS011;44029;52.956;4.772;2023-04-29T12:54:34;8.93;;;2.05;;
55489;SDS011;44029;52.956;4.772;2023-04-29T12:57:01;10.15;;;1.80;;
55489;SDS011;44029;52.956;4.772;2023-04-29T12:59:26;10.98;;;4.50;;
55489;SDS011;44029;52.956;4.772;2023-04-29T13:01:52;5.65;;;1.98;;
55489;SDS011;44029;52.956;4.772;2023-04-29T13:04:17;4.20;;;1.65;;
55489;SDS011;44029;52.956;4.772;2023-04-29T13:06:43;3.75;;;2.22;;
55489;SDS011;44029;52.956;4.772;2023-04-29T13:09:08;2.05;;;1.45;;
55489;SDS011;44029;52.956;4.772;2023-04-29T13:11:36;8.10;;;2.85;;
55489;SDS011;44029;52.956;4.772;2023-04-29T13:14:05;2.88;;;1.52;;
55489;SDS011;44029;52.956;4.772;2023-04-29T13:16:31;4.35;;;1.65;;
55489;SDS011;44029;52.956;4.772;2023-04-29T13:18:57;4.80;;;1.30;;
55489;SDS011;44029;52.956;4.772;2023-04-29T13:21:23;3.05;;;1.48;;
55489;SDS011;44029;52.956;4.772;2023-04-29T13:23:48;6.03;;;1.73;;
55489;SDS011;44029;52.956;4.772;2023-04-29T13:26:14;4.20;;;1.75;;
55489;SDS011;44029;52.956;4.772;2023-04-29T13:28:39;16.13;;;8.18;;
55489;SDS011;44029;52.956;4.772;2023-04-29T13:31:05;2.45;;;1.50;;
55489;SDS011;44029;52.956;4.772;2023-04-29T13:33:31;3.22;;;1.20;;
55489;SDS011;44029;52.956;4.772;2023-04-29T13:35:56;5.50;;;1.27;;
55489;SDS011;44029;52.956;4.772;2023-04-29T13:38:21;9.48;;;1.70;;
55489;SDS011;44029;52.956;4.772;2023-04-29T13:40:47;1.77;;;0.90;;
55489;SDS011;44029;52.956;4.772;2023-04-29T13:43:12;24.67;;;10.13;;
55489;SDS011;44029;52.956;4.772;2023-04-29T13:45:37;8.45;;;4.32;;
55489;SDS011;44029;52.956;4.772;2023-04-29T13:48:03;5.45;;;2.50;;
55489;SDS011;44029;52.956;4.772;2023-04-29T13:50:28;2.05;;;1.60;;
55489;SDS011;44029;52.956;4.772;2023-04-29T13:52:54;5.65;;;1.35;;
55489;SDS011;44029;52.956;4.772;2023-04-29T13:55:20;1.88;;;1.35;;
55489;SDS011;44029;52.956;4.772;2023-04-29T13:57:46;1.73;;;1.13;;
55489;SDS011;44029;52.956;4.772;2023-04-29T14:00:12;8.57;;;2.15;;
55489;SDS011;44029;52.956;4.772;2023-04-29T14:02:38;1.98;;;1.05;;
55489;SDS011;44029;52.956;4.772;2023-04-29T14:05:04;5.35;;;1.48;;
55489;SDS011;44029;52.956;4.772;2023-04-29T14:07:30;2.40;;;1.23;;
55489;SDS011;44029;52.956;4.772;2023-04-29T14:09:55;5.57;;;1.45;;
55489;SDS011;44029;52.956;4.772;2023-04-29T14:12:20;5.65;;;2.22;;
55489;SDS011;44029;52.956;4.772;2023-04-29T14:14:46;9.90;;;3.45;;
55489;SDS011;44029;52.956;4.772;2023-04-29T14:17:11;34.22;;;14.68;;
55489;SDS011;44029;52.956;4.772;2023-04-29T14:19:36;29.60;;;10.38;;
55489;SDS011;44029;52.956;4.772;2023-04-29T14:22:02;19.65;;;8.57;;
55489;SDS011;44029;52.956;4.772;2023-04-29T14:24:27;6.30;;;1.80;;
55489;SDS011;44029;52.956;4.772;2023-04-29T14:26:52;5.10;;;1.60;;
55489;SDS011;44029;52.956;4.772;2023-04-29T14:29:18;3.53;;;1.77;;
55489;SDS011;44029;52.956;4.772;2023-04-29T14:31:43;7.28;;;1.88;;
55489;SDS011;44029;52.956;4.772;2023-04-29T14:34:08;3.95;;;1.42;;
55489;SDS011;44029;52.956;4.772;2023-04-29T14:36:34;1.40;;;1.02;;
55489;SDS011;44029;52.956;4.772;2023-04-29T14:38:59;1.35;;;1.02;;
55489;SDS011;44029;52.956;4.772;2023-04-29T14:41:26;7.07;;;1.70;;
55489;SDS011;44029;52.956;4.772;2023-04-29T14:43:51;5.45;;;1.85;;
55489;SDS011;44029;52.956;4.772;2023-04-29T14:46:17;22.95;;;7.72;;
55489;SDS011;44029;52.956;4.772;2023-04-29T14:48:43;18.20;;;8.27;;
55489;SDS011;44029;52.956;4.772;2023-04-29T14:51:09;5.60;;;3.20;;
55489;SDS011;44029;52.956;4.772;2023-04-29T14:53:34;11.57;;;5.45;;
55489;SDS011;44029;52.956;4.772;2023-04-29T14:56:00;16.42;;;4.20;;
55489;SDS011;44029;52.956;4.772;2023-04-29T14:58:25;12.32;;;2.33;;
55489;SDS011;44029;52.956;4.772;2023-04-29T15:00:51;1.88;;;1.27;;
55489;SDS011;44029;52.956;4.772;2023-04-29T15:03:16;8.23;;;2.20;;
55489;SDS011;44029;52.956;4.772;2023-04-29T15:05:45;7.32;;;2.60;;
55489;SDS011;44029;52.956;4.772;2023-04-29T15:08:11;8.25;;;3.70;;
55489;SDS011;44029;52.956;4.772;2023-04-29T15:10:37;4.95;;;1.95;;